Time;durP1;ratioP1;P1;durP2;ratioP2;P2;SDS_P1;SDS_P2;PMS_P1;PMS_P2;Temp;Humidity;BMP_temperature;BMP_pressure;BME280_temperature;BME280_humidity;BME280_pressure;Samples;Min_cycle;Max_cycle;Signal;HPM_P1;HPM_P2
2021/01/23 00:00:56;;;;;;;25.10;11.38;;;0.30;95.70;;;;;;5089495;27;20031;-82
2021/01/23 00:03:22;;;;;;;21.98;10.88;;;0.20;95.70;;;;;;5108668;27;20035;-83
2021/01/23 00:05:47;;;;;;;23.73;11.57;;;0.30;95.80;;;;;;5110919;27;20044;-81
2021/01/23 00:08:13;;;;;;;20.17;11.70;;;0.20;95.70;;;;;;5096473;27;20039;-82
2021/01/23 00:10:39;;;;;;;22.33;10.93;;;0.10;95.80;;;;;;5095468;27;20031;-82
2021/01/23 00:13:05;;;;;;;30.48;11.60;;;0.20;95.80;;;;;;5077631;27;20031;-82
2021/01/23 00:15:30;;;;;;;17.58;10.88;;;0.30;95.70;;;;;;5111764;27;20478;-82
2021/01/23 00:17:56;;;;;;;19.48;10.52;;;0.30;95.60;;;;;;5095100;27;20319;-83
2021/01/23 00:20:21;;;;;;;17.75;11.38;;;0.20;95.50;;;;;;5079449;27;20047;-83
2021/01/23 00:22:47;;;;;;;19.60;10.18;;;0.20;95.70;;;;;;5109763;27;20038;-82
2021/01/23 00:25:12;;;;;;;19.85;9.43;;;0.20;95.70;;;;;;5111210;27;20390;-83
2021/01/23 00:27:40;;;;;;;17.42;9.27;;;0.30;95.60;;;;;;5111498;27;20035;-82
2021/01/23 00:30:07;;;;;;;21.88;9.90;;;0.30;95.80;;;;;;5093120;27;20023;-81
2021/01/23 00:32:33;;;;;;;21.60;9.88;;;0.30;95.60;;;;;;5111591;27;20028;-80
2021/01/23 00:34:58;;;;;;;19.90;9.52;;;0.20;95.40;;;;;;5094442;27;20493;-82
2021/01/23 00:37:24;;;;;;;17.23;10.38;;;0.20;95.60;;;;;;5093694;27;20027;-81
2021/01/23 00:39:49;;;;;;;20.92;9.38;;;0.20;95.70;;;;;;5094357;27;20027;-80
2021/01/23 00:42:15;;;;;;;17.80;9.52;;;0.20;95.70;;;;;;5093824;27;20077;-81
2021/01/23 00:44:40;;;;;;;16.75;8.52;;;0.10;95.80;;;;;;5078296;27;20121;-81
2021/01/23 00:47:06;;;;;;;14.35;8.82;;;0.20;95.90;;;;;;5110481;27;20266;-80
2021/01/23 00:49:31;;;;;;;22.17;8.68;;;0.20;95.60;;;;;;5112612;27;20470;-79
2021/01/23 00:51:57;;;;;;;16.00;8.75;;;0.20;95.80;;;;;;5088984;27;20403;-80
2021/01/23 00:54:22;;;;;;;18.15;9.07;;;0.20;95.60;;;;;;5109482;27;20145;-81
2021/01/23 00:56:48;;;;;;;17.90;8.90;;;0.40;96.00;;;;;;5090672;27;20076;-81
2021/01/23 00:59:13;;;;;;;19.30;8.95;;;0.50;95.70;;;;;;5099902;27;20035;-82
2021/01/23 01:01:39;;;;;;;14.88;8.38;;;0.40;95.40;;;;;;5084970;27;20475;-80
2021/01/23 01:04:04;;;;;;;15.30;7.90;;;0.40;95.80;;;;;;5057739;27;20032;-82
2021/01/23 01:06:30;;;;;;;28.40;9.52;;;0.30;95.80;;;;;;5036749;27;20035;-82
2021/01/23 01:08:55;;;;;;;14.82;8.75;;;0.20;95.60;;;;;;5091193;27;20038;-81
2021/01/23 01:11:21;;;;;;;16.30;9.10;;;0.30;95.90;;;;;;5093600;27;20562;-82
2021/01/23 01:13:47;;;;;;;21.15;9.02;;;0.20;95.70;;;;;;5089609;27;20038;-80
2021/01/23 01:16:12;;;;;;;18.25;10.13;;;0.20;95.70;;;;;;5108014;27;20406;-81
2021/01/23 01:18:38;;;;;;;13.48;7.80;;;0.30;95.80;;;;;;5107992;27;20474;-81
2021/01/23 01:21:04;;;;;;;19.55;9.85;;;0.40;96.00;;;;;;5091217;27;20035;-82
2021/01/23 01:23:29;;;;;;;25.00;10.02;;;0.40;95.80;;;;;;5066250;27;20031;-82
2021/01/23 01:25:55;;;;;;;22.10;9.20;;;0.40;95.90;;;;;;5084856;27;20039;-82
2021/01/23 01:28:20;;;;;;;24.88;10.05;;;0.30;95.50;;;;;;5108113;27;20035;-79
2021/01/23 01:30:46;;;;;;;15.95;7.50;;;0.30;96.00;;;;;;5105178;27;20406;-81
2021/01/23 01:33:11;;;;;;;18.67;9.82;;;0.30;96.00;;;;;;5092277;27;20491;-81
2021/01/23 01:35:37;;;;;;;21.85;10.38;;;0.20;95.80;;;;;;5091626;27;20500;-81
2021/01/23 01:38:02;;;;;;;18.17;10.30;;;0.20;95.90;;;;;;5090122;27;20054;-81
2021/01/23 01:40:28;;;;;;;20.23;10.20;;;0.20;95.90;;;;;;5108947;27;20057;-82
2021/01/23 01:42:55;;;;;;;15.77;8.13;;;0.20;95.90;;;;;;5107996;27;20497;-81
2021/01/23 01:45:20;;;;;;;15.40;8.13;;;0.20;95.90;;;;;;5068555;27;20121;-82
2021/01/23 01:47:46;;;;;;;18.50;8.85;;;0.40;96.00;;;;;;5091891;27;20060;-80
2021/01/23 01:50:13;;;;;;;16.35;9.07;;;0.50;95.90;;;;;;5091849;27;20039;-81
2021/01/23 01:52:38;;;;;;;14.95;7.68;;;0.50;95.60;;;;;;5107538;27;20031;-82
2021/01/23 01:55:04;;;;;;;15.43;8.40;;;0.50;95.70;;;;;;5076057;27;20029;-81
2021/01/23 01:57:30;;;;;;;15.07;6.90;;;0.40;95.80;;;;;;5108819;27;20559;-82
2021/01/23 01:59:56;;;;;;;15.82;8.02;;;0.50;95.80;;;;;;5107348;27;20031;-81
2021/01/23 02:02:57;;;;;;;17.48;8.02;;;0.60;95.80;;;;;;5108822;27;20031;-80
2021/01/23 02:05:33;;;;;;;20.65;8.02;;;0.60;95.50;;;;;;5108873;27;20027;-81
2021/01/23 02:08:37;;;;;;;18.60;7.88;;;0.40;95.70;;;;;;5107017;27;20055;-81
2021/01/23 02:11:13;;;;;;;17.67;7.43;;;0.40;95.90;;;;;;5094099;27;20452;-82
2021/01/23 02:13:45;;;;;;;;;;;0.60;96.00;;;;;;5104011;27;20031;-81
2021/01/23 02:16:29;;;;;;;15.02;8.35;;;0.70;95.60;;;;;;5108439;27;19915;-83
2021/01/23 02:19:03;;;;;;;13.00;6.88;;;0.70;95.60;;;;;;5106549;27;20035;-81
2021/01/23 02:21:37;;;;;;;20.33;9.00;;;0.70;95.80;;;;;;5082660;27;20240;-80
2021/01/23 02:24:03;;;;;;;15.45;7.65;;;0.70;95.80;;;;;;5091612;27;20035;-81
2021/01/23 02:26:39;;;;;;;22.70;9.40;;;0.70;95.80;;;;;;5090135;27;20031;-81
2021/01/23 02:29:20;;;;;;;13.38;8.55;;;0.70;95.70;;;;;;5092083;27;20067;-82
2021/01/23 02:31:53;;;;;;;16.70;7.47;;;0.60;95.80;;;;;;5106673;27;20542;-81
2021/01/23 02:34:20;;;;;;;15.43;7.22;;;0.80;95.90;;;;;;5103542;27;20517;-82
2021/01/23 02:36:46;;;;;;;13.70;7.05;;;0.90;95.60;;;;;;5089237;27;20028;-80
2021/01/23 02:39:12;;;;;;;11.68;7.00;;;1.10;95.30;;;;;;5105897;27;20395;-79
2021/01/23 02:41:37;;;;;;;16.50;7.03;;;1.00;95.60;;;;;;5106986;27;20106;-81
2021/01/23 02:44:03;;;;;;;10.07;5.43;;;1.00;95.30;;;;;;5090653;27;20058;-81
2021/01/23 02:46:28;;;;;;;16.20;7.28;;;1.00;95.40;;;;;;5090000;27;20454;-82
2021/01/23 02:48:54;;;;;;;21.88;8.60;;;1.00;95.40;;;;;;5088585;27;20035;-80
2021/01/23 02:52:04;;;;;;;18.42;8.20;;;0.90;95.60;;;;;;5106916;27;20039;-81
2021/01/23 02:55:05;;;;;;;13.30;7.13;;;1.10;95.60;;;;;;5092495;27;20423;-81
2021/01/23 02:57:30;;;;;;;11.20;6.15;;;1.10;95.20;;;;;;5041667;28;20497;-81
2021/01/23 02:59:58;;;;;;;11.75;6.95;;;1.10;95.40;;;;;;5091562;27;20047;-81
2021/01/23 03:02:23;;;;;;;13.15;6.55;;;1.10;95.30;;;;;;5088679;27;20031;-82
2021/01/23 03:04:49;;;;;;;12.15;6.85;;;1.00;95.40;;;;;;5087466;27;20493;-80
2021/01/23 03:07:15;;;;;;;12.50;6.72;;;1.20;95.40;;;;;;5075328;27;20033;-81
2021/01/23 03:09:41;;;;;;;13.25;6.88;;;1.20;95.30;;;;;;5106918;27;20422;-80
2021/01/23 03:12:07;;;;;;;14.05;7.60;;;1.30;95.20;;;;;;5089890;27;20053;-80
2021/01/23 03:14:34;;;;;;;14.95;6.97;;;1.30;95.20;;;;;;5075426;27;20031;-81
2021/01/23 03:16:59;;;;;;;13.00;7.55;;;1.30;95.10;;;;;;5105394;27;20356;-82
2021/01/23 03:19:25;;;;;;;14.38;7.30;;;1.30;95.40;;;;;;5090122;28;20035;-76
2021/01/23 03:21:51;;;;;;;15.35;6.65;;;1.30;95.10;;;;;;5104938;27;20080;-75
2021/01/23 03:24:17;;;;;;;16.20;7.95;;;1.20;95.10;;;;;;5123968;27;20039;-76
2021/01/23 03:26:43;;;;;;;13.65;6.78;;;1.20;95.20;;;;;;5091289;27;20027;-76
2021/01/23 03:29:08;;;;;;;10.13;6.40;;;1.30;95.10;;;;;;5096001;27;20070;-76
2021/01/23 03:31:34;;;;;;;10.73;6.82;;;1.30;95.10;;;;;;5105883;28;20501;-76
2021/01/23 03:33:59;;;;;;;12.02;7.18;;;1.30;95.20;;;;;;5104272;28;20028;-76
2021/01/23 03:36:25;;;;;;;20.13;8.40;;;1.20;95.30;;;;;;5124456;28;20118;-77
2021/01/23 03:38:51;;;;;;;15.63;7.60;;;1.20;95.20;;;;;;5078644;28;20035;-76
2021/01/23 03:41:17;;;;;;;12.43;7.03;;;1.30;95.40;;;;;;5090385;28;20061;-76
2021/01/23 03:43:42;;;;;;;12.00;7.35;;;1.30;95.30;;;;;;5104288;28;20063;-76
2021/01/23 03:46:08;;;;;;;15.27;7.47;;;1.30;95.20;;;;;;5098941;28;20386;-77
2021/01/23 03:48:33;;;;;;;11.63;6.38;;;1.30;95.10;;;;;;5088758;28;20038;-76
2021/01/23 03:50:59;;;;;;;10.98;6.22;;;1.30;95.10;;;;;;5091329;27;20438;-76
2021/01/23 03:53:24;;;;;;;11.38;6.15;;;1.40;95.00;;;;;;5090991;28;20487;-76
2021/01/23 03:55:50;;;;;;;14.68;6.57;;;1.40;94.90;;;;;;5091734;27;20433;-77
2021/01/23 03:58:19;;;;;;;12.98;6.35;;;1.20;95.10;;;;;;5091200;28;20035;-76
2021/01/23 04:00:44;;;;;;;10.07;5.93;;;1.20;95.30;;;;;;5091324;27;20024;-76
2021/01/23 04:03:10;;;;;;;11.20;6.75;;;1.30;95.10;;;;;;5095393;28;20030;-76
2021/01/23 04:05:35;;;;;;;9.27;5.90;;;1.30;95.10;;;;;;5091034;28;20398;-76
2021/01/23 04:08:01;;;;;;;19.90;7.95;;;1.40;95.00;;;;;;5073268;28;20573;-77
2021/01/23 04:10:27;;;;;;;12.88;6.15;;;1.30;94.90;;;;;;5105398;28;20031;-76
2021/01/23 04:12:52;;;;;;;13.43;6.93;;;1.40;95.00;;;;;;5103946;28;20420;-76
2021/01/23 04:15:18;;;;;;;14.93;7.38;;;1.30;94.90;;;;;;5091300;28;20027;-76
2021/01/23 04:17:44;;;;;;;11.77;6.40;;;1.30;95.00;;;;;;5071483;28;20061;-75
2021/01/23 04:20:09;;;;;;;16.95;6.45;;;1.30;95.00;;;;;;5070110;28;20095;-76
2021/01/23 04:22:35;;;;;;;12.25;6.40;;;1.20;95.10;;;;;;5089212;28;20031;-76
2021/01/23 04:25:01;;;;;;;12.48;6.28;;;1.40;95.00;;;;;;5071822;28;20054;-75
2021/01/23 04:27:26;;;;;;;9.40;6.18;;;1.40;95.00;;;;;;5079846;28;20035;-75
2021/01/23 04:29:52;;;;;;;8.05;4.75;;;1.30;94.90;;;;;;5105984;28;20031;-76
2021/01/23 04:32:17;;;;;;;16.52;6.82;;;1.40;95.10;;;;;;5089488;28;20122;-76
2021/01/23 04:34:43;;;;;;;13.52;6.15;;;1.40;94.90;;;;;;5085268;28;20110;-76
2021/01/23 04:37:08;;;;;;;14.07;6.88;;;1.50;94.90;;;;;;5095725;28;20109;-76
2021/01/23 04:39:35;;;;;;;9.77;6.07;;;1.40;94.80;;;;;;5107979;27;20027;-76
2021/01/23 04:42:03;;;;;;;13.13;5.85;;;1.40;95.00;;;;;;5091951;27;20027;-77
2021/01/23 04:44:29;;;;;;;11.73;6.00;;;1.30;95.00;;;;;;5083036;27;20517;-77
2021/01/23 04:46:54;;;;;;;10.13;5.60;;;1.30;95.10;;;;;;5090799;27;20032;-76
2021/01/23 04:49:20;;;;;;;16.40;7.38;;;1.30;95.10;;;;;;5083187;27;20039;-76
2021/01/23 04:51:45;;;;;;;9.57;5.00;;;1.30;95.00;;;;;;5091767;27;20035;-77
2021/01/23 04:54:11;;;;;;;10.40;5.53;;;1.30;95.00;;;;;;5098216;27;20462;-76
2021/01/23 04:56:36;;;;;;;12.18;7.10;;;1.40;94.90;;;;;;5098369;27;20310;-77
2021/01/23 04:59:02;;;;;;;13.90;6.72;;;1.40;95.00;;;;;;5092387;27;20043;-76
2021/01/23 05:01:27;;;;;;;12.35;6.80;;;1.30;95.20;;;;;;5108786;27;20031;-75
2021/01/23 05:03:54;;;;;;;12.65;5.68;;;1.30;95.10;;;;;;5090139;27;20380;-76
2021/01/23 05:06:19;;;;;;;11.35;5.90;;;1.40;95.10;;;;;;5107111;27;20528;-75
2021/01/23 05:08:45;;;;;;;13.00;6.90;;;1.40;95.20;;;;;;5106464;27;20035;-76
2021/01/23 05:11:10;;;;;;;15.32;6.40;;;1.40;95.10;;;;;;5090990;27;20043;-76
2021/01/23 05:13:36;;;;;;;11.50;5.78;;;1.40;95.30;;;;;;5108439;27;20423;-75
2021/01/23 05:16:01;;;;;;;6.15;4.05;;;1.40;95.30;;;;;;5107449;27;20031;-75
2021/01/23 05:18:27;;;;;;;9.18;3.15;;;1.50;95.30;;;;;;5107181;27;20055;-75
2021/01/23 05:20:53;;;;;;;11.95;4.95;;;1.50;95.30;;;;;;5108796;27;20398;-75
2021/01/23 05:23:25;;;;;;;7.93;5.50;;;1.50;95.30;;;;;;5108722;27;20556;-76
2021/01/23 05:25:57;;;;;;;14.10;6.32;;;1.60;95.30;;;;;;5105249;27;20447;-76
2021/01/23 05:28:33;;;;;;;15.27;6.75;;;1.60;95.20;;;;;;5097919;27;20065;-76
2021/01/23 05:30:59;;;;;;;10.90;5.60;;;1.60;95.30;;;;;;5074573;27;20034;-76
2021/01/23 05:33:29;;;;;;;14.65;6.45;;;1.60;95.30;;;;;;5088655;27;20065;-75
2021/01/23 05:35:56;;;;;;;9.80;6.72;;;1.70;95.40;;;;;;5088073;27;20035;-76
2021/01/23 05:38:26;;;;;;;10.43;6.55;;;1.70;95.30;;;;;;5108659;27;20035;-77
2021/01/23 05:40:54;;;;;;;10.32;6.25;;;1.70;95.20;;;;;;5089173;27;20061;-76
2021/01/23 05:43:48;;;;;;;6.65;4.53;;;1.70;95.30;;;;;;5106220;27;20479;-76
2021/01/23 05:46:18;;;;;;;11.48;6.00;;;1.80;95.30;;;;;;5094256;27;20085;-76
2021/01/23 05:48:44;;;;;;;11.82;5.93;;;1.80;95.30;;;;;;5077933;27;20039;-76
2021/01/23 05:51:10;;;;;;;11.18;6.20;;;1.80;95.20;;;;;;5089314;27;20031;-75
2021/01/23 05:53:35;;;;;;;10.88;5.25;;;1.90;95.20;;;;;;5108820;27;20027;-76
2021/01/23 05:56:01;;;;;;;8.30;5.13;;;1.90;95.10;;;;;;5090823;27;20486;-75
2021/01/23 05:58:34;;;;;;;9.60;5.90;;;1.90;95.00;;;;;;5074656;27;20039;-75
2021/01/23 06:01:01;;;;;;;8.50;4.40;;;2.00;95.10;;;;;;5091385;27;20027;-76
2021/01/23 06:03:34;;;;;;;8.35;4.55;;;2.00;95.10;;;;;;5091786;27;20031;-75
2021/01/23 06:06:00;;;;;;;9.23;6.07;;;2.00;94.90;;;;;;5106742;27;20293;-76
2021/01/23 06:08:44;;;;;;;10.50;5.50;;;2.00;95.10;;;;;;5091112;27;20031;-75
2021/01/23 06:11:19;;;;;;;6.85;3.95;;;2.00;95.10;;;;;;5091968;27;20027;-75
2021/01/23 06:13:56;;;;;;;12.80;6.18;;;2.00;95.20;;;;;;5124151;27;20118;-76
2021/01/23 06:16:33;;;;;;;10.85;6.18;;;2.00;95.20;;;;;;5099087;27;20609;-75
2021/01/23 06:19:04;;;;;;;8.90;5.40;;;2.00;95.30;;;;;;5107312;27;20059;-75
2021/01/23 06:21:42;;;;;;;11.57;5.95;;;2.10;95.20;;;;;;5124471;27;20047;-75
2021/01/23 06:24:07;;;;;;;11.30;6.20;;;2.00;95.40;;;;;;5106774;27;20031;-75
2021/01/23 06:26:53;;;;;;;10.65;6.43;;;2.10;95.40;;;;;;5107813;27;20083;-75
2021/01/23 06:29:41;;;;;;;7.97;4.78;;;2.10;95.50;;;;;;5091308;27;20129;-75
2021/01/23 06:32:12;;;;;;;10.95;6.15;;;2.20;95.40;;;;;;5107913;27;20027;-76
2021/01/23 06:34:44;;;;;;;11.20;5.70;;;2.10;95.40;;;;;;5124447;27;20031;-75
2021/01/23 06:37:29;;;;;;;13.32;7.05;;;2.20;95.40;;;;;;5107862;27;20384;-75
2021/01/23 06:40:12;;;;;;;16.05;5.47;;;2.20;95.60;;;;;;5085616;27;20031;-76
2021/01/23 06:42:38;;;;;;;10.70;6.03;;;2.30;95.50;;;;;;5105668;27;20039;-76
2021/01/23 06:45:17;;;;;;;9.85;5.95;;;2.30;95.30;;;;;;5089954;27;20063;-75
2021/01/23 06:47:53;;;;;;;13.15;5.93;;;2.30;95.30;;;;;;5084463;27;20027;-76
2021/01/23 06:50:41;;;;;;;9.93;5.80;;;2.30;95.50;;;;;;5102086;27;20019;-75
2021/01/23 06:53:07;;;;;;;12.90;5.93;;;2.30;95.50;;;;;;5106494;27;20593;-75
2021/01/23 06:55:46;;;;;;;12.15;6.00;;;2.30;95.30;;;;;;5106775;27;20110;-75
2021/01/23 06:58:34;;;;;;;10.38;6.18;;;2.40;95.40;;;;;;5082219;27;20054;-76
2021/01/23 07:01:00;;;;;;;11.52;6.07;;;2.30;95.40;;;;;;5106932;27;20027;-76
2021/01/23 07:03:29;;;;;;;9.55;5.82;;;2.40;95.40;;;;;;5089049;27;20487;-76
2021/01/23 07:06:01;;;;;;;11.30;6.47;;;2.40;95.40;;;;;;5088846;27;20394;-76
2021/01/23 07:08:36;;;;;;;10.05;6.05;;;2.40;95.40;;;;;;5074255;27;20031;-76
2021/01/23 07:11:17;;;;;;;11.30;5.68;;;2.40;95.30;;;;;;5088424;27;20031;-76
2021/01/23 07:14:03;;;;;;;10.32;4.10;;;2.50;95.40;;;;;;5084481;27;20070;-76
2021/01/23 07:16:30;;;;;;;8.18;4.93;;;2.50;95.40;;;;;;5088434;27;20038;-75
2021/01/23 07:19:03;;;;;;;12.30;6.38;;;2.50;95.50;;;;;;5106549;27;20421;-76
2021/01/23 07:21:35;;;;;;;13.27;6.10;;;2.50;95.50;;;;;;5084721;27;20550;-75
2021/01/23 07:24:01;;;;;;;9.57;5.82;;;2.50;95.40;;;;;;5089287;27;20413;-76
2021/01/23 07:26:26;;;;;;;10.35;6.05;;;2.50;95.40;;;;;;5106843;28;20455;-76
2021/01/23 07:28:53;;;;;;;16.92;7.32;;;2.50;95.40;;;;;;5105198;28;20139;-76
2021/01/23 07:31:22;;;;;;;11.68;6.07;;;2.60;95.30;;;;;;5090435;27;20040;-76
2021/01/23 07:33:48;;;;;;;12.23;5.95;;;2.50;95.50;;;;;;5106566;27;20027;-76
2021/01/23 07:36:42;;;;;;;11.50;4.95;;;2.50;95.40;;;;;;5090777;28;20069;-76
2021/01/23 07:39:12;;;;;;;6.22;4.43;;;2.60;95.40;;;;;;5106797;28;20032;-76
2021/01/23 07:41:45;;;;;;;11.55;4.60;;;2.60;95.40;;;;;;5086127;28;20035;-76
2021/01/23 07:44:10;;;;;;;7.90;5.22;;;2.60;95.40;;;;;;5089956;28;20050;-76
2021/01/23 07:46:37;;;;;;;14.25;5.80;;;2.60;95.40;;;;;;5088969;28;20100;-76
2021/01/23 07:49:03;;;;;;;11.60;5.38;;;2.60;95.40;;;;;;5089039;28;20068;-75
2021/01/23 07:51:30;;;;;;;12.50;5.82;;;2.60;95.30;;;;;;5104807;28;20532;-75
2021/01/23 07:54:09;;;;;;;9.80;5.40;;;2.60;95.40;;;;;;5089259;28;20036;-75
2021/01/23 07:56:34;;;;;;;10.13;5.38;;;2.70;95.60;;;;;;5105188;28;20038;-75
2021/01/23 07:59:00;;;;;;;10.10;5.35;;;2.70;95.20;;;;;;5106050;28;20027;-76
2021/01/23 08:01:26;;;;;;;12.43;5.30;;;2.70;95.30;;;;;;5090266;28;20122;-76
2021/01/23 08:03:53;;;;;;;14.10;4.50;;;2.70;95.30;;;;;;5089713;28;20059;-76
2021/01/23 08:06:22;;;;;;;13.07;5.53;;;2.80;95.30;;;;;;5090830;28;20379;-76
2021/01/23 08:08:49;;;;;;;7.78;5.25;;;2.80;95.30;;;;;;5104616;27;20034;-75
2021/01/23 08:11:41;;;;;;;11.60;4.88;;;2.80;95.30;;;;;;5088615;28;20028;-75
2021/01/23 08:14:12;;;;;;;10.77;5.13;;;2.80;95.20;;;;;;5091544;27;20031;-76
2021/01/23 08:16:54;;;;;;;13.95;5.32;;;2.90;95.20;;;;;;5091287;27;20354;-75
2021/01/23 08:19:19;;;;;;;10.07;5.40;;;2.90;95.20;;;;;;5107066;27;20034;-75
2021/01/23 08:22:05;;;;;;;9.48;4.18;;;2.90;95.20;;;;;;5075439;27;20409;-75
2021/01/23 08:24:30;;;;;;;11.63;4.70;;;3.00;95.20;;;;;;5089863;27;20031;-75
2021/01/23 08:27:15;;;;;;;11.10;6.72;;;3.00;95.20;;;;;;5109763;27;20038;-76
2021/01/23 08:29:43;;;;;;;7.28;4.53;;;3.00;95.20;;;;;;5101266;27;20073;-75
2021/01/23 08:32:09;;;;;;;10.88;5.45;;;3.10;95.20;;;;;;5108299;27;20031;-75
2021/01/23 08:34:34;;;;;;;7.47;4.53;;;3.10;95.20;;;;;;5075799;27;20033;-76
2021/01/23 08:37:01;;;;;;;14.38;5.75;;;3.20;95.10;;;;;;5107018;27;20027;-76
2021/01/23 08:39:27;;;;;;;10.23;5.45;;;3.20;95.00;;;;;;5088493;27;20039;-76
2021/01/23 08:41:52;;;;;;;11.15;6.05;;;3.30;95.10;;;;;;4399608;27;10000285;-76
2021/01/23 08:44:18;;;;;;;9.95;5.47;;;3.30;95.10;;;;;;5103020;27;20470;-76
2021/01/23 08:46:43;;;;;;;10.52;5.30;;;3.30;95.00;;;;;;5084445;27;20023;-75
2021/01/23 08:49:09;;;;;;;11.88;5.75;;;3.40;94.90;;;;;;5099648;27;20040;-76
2021/01/23 08:51:34;;;;;;;11.02;5.35;;;3.40;95.00;;;;;;5076524;27;20035;-76
2021/01/23 08:54:00;;;;;;;8.77;5.57;;;3.50;94.90;;;;;;5089591;27;20042;-76
2021/01/23 08:56:25;;;;;;;10.82;5.35;;;3.50;95.00;;;;;;5109803;27;20031;-76
2021/01/23 08:58:52;;;;;;;10.50;4.90;;;3.50;94.80;;;;;;5090772;27;20023;-75
2021/01/23 09:01:17;;;;;;;6.35;3.90;;;3.60;94.70;;;;;;5106809;27;20058;-78
2021/01/23 09:03:43;;;;;;;5.05;3.70;;;3.60;94.60;;;;;;5078971;27;20507;-75
2021/01/23 09:06:08;;;;;;;7.05;4.00;;;3.60;94.90;;;;;;5108104;27;20938;-76
2021/01/23 09:08:34;;;;;;;10.68;4.45;;;3.70;94.60;;;;;;5109444;27;20032;-76
2021/01/23 09:10:59;;;;;;;8.50;5.40;;;3.70;94.70;;;;;;5091244;27;20102;-75
2021/01/23 09:13:25;;;;;;;7.68;4.00;;;3.80;94.60;;;;;;5109503;27;20118;-75
2021/01/23 09:15:50;;;;;;;8.02;3.63;;;3.80;94.60;;;;;;5108601;27;20031;-75
2021/01/23 09:18:16;;;;;;;6.65;3.67;;;3.90;94.50;;;;;;5092308;27;20041;-75
2021/01/23 09:20:42;;;;;;;11.95;5.53;;;3.90;94.60;;;;;;5108576;27;20031;-75
2021/01/23 09:23:07;;;;;;;8.98;4.80;;;3.90;94.40;;;;;;5092043;27;20039;-74
2021/01/23 09:25:33;;;;;;;9.57;4.53;;;4.00;94.60;;;;;;5074901;27;20035;-74
2021/01/23 09:27:58;;;;;;;8.40;4.55;;;4.00;94.60;;;;;;5074807;27;20031;-76
2021/01/23 09:30:24;;;;;;;12.82;6.32;;;4.10;94.50;;;;;;5073077;27;20394;-74
2021/01/23 09:32:49;;;;;;;8.32;5.63;;;4.10;94.30;;;;;;5106466;27;20561;-75
2021/01/23 09:35:15;;;;;;;8.65;4.90;;;4.10;94.50;;;;;;5086431;27;21880;-75
2021/01/23 09:37:40;;;;;;;9.43;4.70;;;4.20;94.40;;;;;;5089217;27;20517;-75
2021/01/23 09:40:07;;;;;;;9.43;4.57;;;4.20;94.30;;;;;;5107928;27;20075;-76
2021/01/23 09:42:32;;;;;;;6.70;3.92;;;4.20;94.20;;;;;;5090681;27;20035;-74
2021/01/23 09:44:58;;;;;;;8.25;4.65;;;4.30;94.20;;;;;;5103969;27;20073;-75
2021/01/23 09:47:24;;;;;;;7.70;4.07;;;4.30;94.40;;;;;;5090305;27;20038;-76
2021/01/23 09:49:49;;;;;;;5.75;2.88;;;4.30;93.80;;;;;;5073248;27;20574;-76
2021/01/23 09:52:15;;;;;;;8.32;3.22;;;4.40;93.90;;;;;;5091748;27;20117;-75
2021/01/23 09:54:40;;;;;;;2.80;1.92;;;4.40;93.90;;;;;;5091056;27;20035;-75
2021/01/23 09:57:06;;;;;;;9.00;3.65;;;4.40;93.70;;;;;;5106993;27;20407;-75
2021/01/23 09:59:31;;;;;;;7.40;3.45;;;4.50;93.90;;;;;;5071550;27;20142;-76
2021/01/23 10:02:00;;;;;;;2.22;1.77;;;4.60;93.90;;;;;;5106661;27;20035;-76
2021/01/23 10:04:26;;;;;;;3.33;2.08;;;4.60;93.80;;;;;;5108047;27;20107;-76
2021/01/23 10:06:52;;;;;;;6.22;3.10;;;4.60;93.90;;;;;;5091829;27;20041;-75
2021/01/23 10:09:18;;;;;;;3.78;2.28;;;4.70;93.80;;;;;;5075921;27;20475;-75
2021/01/23 10:11:44;;;;;;;8.68;4.32;;;4.70;93.90;;;;;;5091910;27;20544;-75
2021/01/23 10:14:10;;;;;;;6.55;4.53;;;4.80;94.00;;;;;;5091379;27;20111;-77
2021/01/23 10:16:35;;;;;;;8.30;4.78;;;4.80;94.20;;;;;;5092519;27;20075;-76
2021/01/23 10:19:04;;;;;;;9.85;4.88;;;4.90;93.90;;;;;;5107224;27;20093;-77
2021/01/23 10:21:30;;;;;;;6.93;3.97;;;4.90;93.90;;;;;;5092665;27;20066;-76
2021/01/23 10:23:55;;;;;;;7.22;3.88;;;5.00;94.00;;;;;;5072647;27;20477;-76
2021/01/23 10:26:21;;;;;;;5.93;2.25;;;5.00;93.90;;;;;;5089969;27;20172;-76
2021/01/23 10:28:46;;;;;;;4.18;2.13;;;5.00;93.70;;;;;;5073850;27;20035;-76
2021/01/23 10:31:12;;;;;;;6.22;3.05;;;5.10;93.80;;;;;;5103313;27;20050;-75
2021/01/23 10:33:37;;;;;;;9.95;4.93;;;5.10;93.50;;;;;;5107654;27;20054;-75
2021/01/23 10:36:03;;;;;;;8.43;4.40;;;5.10;93.60;;;;;;5073745;27;20023;-75
2021/01/23 10:38:29;;;;;;;6.05;2.22;;;5.10;93.70;;;;;;5107039;27;20516;-74
2021/01/23 10:40:54;;;;;;;7.38;4.35;;;5.10;93.10;;;;;;5106128;27;20058;-76
2021/01/23 10:43:20;;;;;;;2.17;1.88;;;5.20;93.60;;;;;;5107775;27;20035;-75
2021/01/23 10:45:46;;;;;;;5.38;2.25;;;5.30;93.30;;;;;;5087335;27;20038;-75
2021/01/23 10:48:12;;;;;;;7.50;5.15;;;5.30;93.20;;;;;;5083305;27;20037;-75
2021/01/23 10:50:37;;;;;;;9.18;4.80;;;5.40;93.70;;;;;;5101279;27;20023;-76
2021/01/23 10:53:03;;;;;;;7.35;3.83;;;5.40;93.30;;;;;;5088612;27;20106;-75
2021/01/23 10:55:28;;;;;;;3.63;2.17;;;5.50;93.30;;;;;;5105681;27;20423;-81
2021/01/23 10:57:54;;;;;;;9.40;4.45;;;5.60;92.90;;;;;;5105302;27;20031;-82
2021/01/23 11:00:20;;;;;;;7.68;3.60;;;5.80;92.70;;;;;;5087974;27;20031;-81
2021/01/23 11:02:46;;;;;;;8.32;4.28;;;6.00;92.70;;;;;;5088671;27;20436;-80
2021/01/23 11:05:12;;;;;;;3.88;2.28;;;6.10;92.80;;;;;;5092835;27;20028;-82
2021/01/23 11:07:37;;;;;;;8.25;3.83;;;6.30;91.90;;;;;;5070772;27;20024;-82
2021/01/23 11:10:04;;;;;;;9.07;4.57;;;6.40;91.60;;;;;;5123220;27;20429;-82
2021/01/23 11:12:29;;;;;;;6.82;3.15;;;6.50;92.00;;;;;;5106243;27;20042;-79
2021/01/23 11:14:55;;;;;;;4.55;1.75;;;6.60;91.20;;;;;;5102603;27;20027;-80
2021/01/23 11:17:20;;;;;;;3.83;2.40;;;6.60;90.60;;;;;;5087427;27;20038;-81
2021/01/23 11:19:46;;;;;;;6.03;3.83;;;6.60;90.80;;;;;;5087713;27;20042;-80
2021/01/23 11:22:11;;;;;;;5.18;2.70;;;6.60;91.20;;;;;;5089860;27;20065;-79
2021/01/23 11:24:37;;;;;;;9.00;2.88;;;6.60;90.80;;;;;;5106556;27;20144;-81
2021/01/23 11:27:03;;;;;;;5.90;3.45;;;6.60;91.30;;;;;;5086781;27;20038;-81
2021/01/23 11:29:28;;;;;;;6.90;3.33;;;6.70;90.90;;;;;;5073355;28;20066;-82
2021/01/23 11:31:54;;;;;;;4.30;2.38;;;7.00;90.30;;;;;;5089884;27;20015;-79
2021/01/23 11:34:19;;;;;;;7.65;3.10;;;7.10;90.40;;;;;;5089858;28;20081;-81
2021/01/23 11:36:45;;;;;;;4.38;2.35;;;7.50;89.00;;;;;;5106578;27;20035;-82
2021/01/23 11:39:10;;;;;;;6.28;3.30;;;7.50;90.10;;;;;;5086989;27;20331;-81
2021/01/23 11:41:36;;;;;;;4.03;2.30;;;7.50;91.00;;;;;;5106557;28;20502;-81
2021/01/23 11:44:01;;;;;;;7.53;2.15;;;7.80;89.00;;;;;;5106428;28;20058;-81
2021/01/23 11:46:27;;;;;;;2.67;1.65;;;7.90;90.00;;;;;;5105362;28;20067;-82
2021/01/23 11:48:53;;;;;;;6.13;3.35;;;8.00;90.00;;;;;;5091057;27;20057;-81
2021/01/23 11:51:18;;;;;;;7.20;3.35;;;8.10;89.10;;;;;;5095386;27;20022;-81
2021/01/23 11:53:44;;;;;;;5.68;3.45;;;8.10;90.10;;;;;;5095004;27;20043;-79
2021/01/23 11:56:09;;;;;;;3.80;2.45;;;8.20;89.60;;;;;;5101805;27;20114;-81
2021/01/23 11:58:35;;;;;;;8.18;2.33;;;8.20;89.00;;;;;;5094486;27;20031;-81
2021/01/23 12:01:00;;;;;;;4.60;2.80;;;8.20;89.20;;;;;;5105923;27;20115;-80
2021/01/23 12:03:26;;;;;;;3.30;2.03;;;8.60;86.50;;;;;;5111413;27;20497;-81
2021/01/23 12:05:51;;;;;;;4.60;3.03;;;8.50;84.40;;;;;;5077494;27;20023;-82
2021/01/23 12:08:17;;;;;;;4.13;2.72;;;8.50;86.70;;;;;;5077121;27;20042;-79
2021/01/23 12:10:44;;;;;;;6.22;1.73;;;8.50;87.50;;;;;;5094572;27;20027;-82
2021/01/23 12:13:09;;;;;;;2.13;1.42;;;8.40;86.00;;;;;;5110078;27;20055;-83
2021/01/23 12:15:35;;;;;;;4.78;2.63;;;8.50;85.20;;;;;;5077893;27;20068;-81
2021/01/23 12:18:00;;;;;;;7.43;2.67;;;8.60;82.70;;;;;;5083753;27;20031;-82
2021/01/23 12:20:26;;;;;;;2.22;1.20;;;8.50;84.00;;;;;;5109061;27;20478;-83
2021/01/23 12:22:52;;;;;;;3.42;1.38;;;8.40;85.20;;;;;;5083877;27;20092;-82
2021/01/23 12:25:24;;;;;;;5.40;2.85;;;8.30;85.00;;;;;;5080654;27;20106;-84
2021/01/23 12:27:53;;;;;;;5.45;2.95;;;8.20;86.70;;;;;;5111276;27;20072;-82
2021/01/23 12:30:20;;;;;;;5.22;3.13;;;8.30;85.00;;;;;;5099083;27;20052;-84
2021/01/23 12:32:45;;;;;;;4.15;2.58;;;8.30;85.40;;;;;;5093718;27;20537;-84
2021/01/23 12:35:13;;;;;;;4.00;2.40;;;8.20;84.00;;;;;;5077062;27;20339;-84
2021/01/23 12:37:39;;;;;;;3.97;2.17;;;8.30;84.50;;;;;;5091756;27;20122;-80
2021/01/23 12:40:05;;;;;;;2.55;1.75;;;8.00;87.00;;;;;;4397718;27;10000606;-82
2021/01/23 12:42:31;;;;;;;3.80;1.48;;;8.10;85.50;;;;;;5092066;27;20035;-83
2021/01/23 12:44:56;;;;;;;4.53;2.13;;;8.10;84.50;;;;;;5088619;27;20439;-82
2021/01/23 12:47:22;;;;;;;3.05;1.90;;;8.10;86.50;;;;;;5104603;27;20057;-81
2021/01/23 12:49:47;;;;;;;6.35;2.53;;;8.00;86.40;;;;;;5088501;27;20177;-82
2021/01/23 12:52:13;;;;;;;5.40;3.40;;;8.10;86.10;;;;;;5071674;27;20148;-82
2021/01/23 12:54:40;;;;;;;5.38;1.75;;;8.10;86.50;;;;;;5102157;27;20088;-83